Time;durP1;ratioP1;P1;durP2;ratioP2;P2;SDS_P1;SDS_P2;PMS_P1;PMS_P2;Temp;Humidity;BMP_temperature;BMP_pressure;BME280_temperature;BME280_humidity;BME280_pressure;Samples;Min_cycle;Max_cycle;Signal;HPM_P1;HPM_P2
2022/11/05 00:10:41;;;;;;;18.47;12.57;;;10.80;70.30;;;;;;5091627;28;20425;-64
2022/11/05 00:18:36;;;;;;;20.23;12.97;;;11.00;52.30;;;;;;5091717;28;20416;-63
2022/11/05 00:21:02;;;;;;;20.03;13.90;;;11.00;52.70;;;;;;5092455;28;20423;-63
2022/11/05 00:26:12;;;;;;;19.30;11.83;;;11.00;47.60;;;;;;5091813;28;20205;-63
2022/11/05 00:28:40;;;;;;;19.40;13.37;;;11.00;47.80;;;;;;5090482;28;20422;-64
2022/11/05 00:31:12;;;;;;;25.13;14.03;;;11.00;42.30;;;;;;5091607;28;20558;-64
2022/11/05 00:33:40;;;;;;;21.90;12.80;;;11.00;39.90;;;;;;5088669;28;20463;-63
2022/11/05 00:36:07;;;;;;;18.03;13.30;;;11.00;40.50;;;;;;5091428;28;20416;-64
2022/11/05 00:38:33;;;;;;;22.50;14.27;;;11.10;36.80;;;;;;5087140;28;20449;-63
2022/11/05 00:40:59;;;;;;;20.90;14.30;;;11.00;30.00;;;;;;5088628;28;20455;-64
2022/11/05 00:46:09;;;;;;;19.20;13.67;;;11.00;31.00;;;;;;5089541;28;20226;-63
2022/11/05 00:51:20;;;;;;;19.77;14.40;;;11.00;35.00;;;;;;5092169;28;20225;-64
2022/11/05 00:53:46;;;;;;;22.37;13.83;;;11.10;29.30;;;;;;5089181;28;20452;-63
2022/11/05 00:56:11;;;;;;;22.57;15.70;;;11.00;28.70;;;;;;5091090;28;20454;-63
2022/11/05 00:58:37;;;;;;;19.77;14.50;;;11.00;29.00;;;;;;5090120;28;20703;-63
2022/11/05 01:01:03;;;;;;;23.90;15.50;;;10.90;32.80;;;;;;5089344;28;20246;-64
2022/11/05 01:03:35;;;;;;;28.57;16.57;;;11.00;27.20;;;;;;5089378;28;20197;-63
2022/11/05 01:06:15;;;;;;;23.43;16.10;;;10.90;30.50;;;;;;5091793;28;20452;-63
2022/11/05 01:08:43;;;;;;;23.77;15.80;;;10.90;37.90;;;;;;5085524;28;21085;-63
2022/11/05 01:11:34;;;;;;;24.53;16.10;;;10.90;39.20;;;;;;5091485;28;20468;-63
2022/11/05 01:14:05;;;;;;;27.37;15.90;;;10.90;40.40;;;;;;5086625;28;20425;-63
2022/11/05 01:16:31;;;;;;;23.17;15.80;;;11.00;41.90;;;;;;5089672;28;20587;-63
2022/11/05 01:18:56;;;;;;;26.60;19.30;;;11.00;34.60;;;;;;5088867;28;20440;-63
2022/11/05 01:21:22;;;;;;;23.80;17.50;;;;;;;;;;5090490;28;20450;-64
2022/11/05 01:23:48;;;;;;;24.70;15.93;;;11.00;35.00;;;;;;5091633;28;21796;-63
2022/11/05 01:26:14;;;;;;;23.93;16.30;;;11.00;33.90;;;;;;5091781;28;20464;-63
2022/11/05 01:28:40;;;;;;;21.40;15.67;;;;;;;;;;5089070;28;20252;-63
2022/11/05 01:31:06;;;;;;;27.87;17.63;;;10.20;42.40;;;;;;5088939;28;20658;-63
2022/11/05 01:33:32;;;;;;;24.97;16.17;;;11.00;42.20;;;;;;5089036;28;20444;-63
2022/11/05 01:35:57;;;;;;;26.83;16.17;;;11.10;33.00;;;;;;5088897;28;20908;-63
2022/11/05 01:38:23;;;;;;;23.67;17.20;;;11.10;32.20;;;;;;5089351;28;20190;-63
2022/11/05 01:40:49;;;;;;;24.30;16.43;;;11.20;28.50;;;;;;5090857;28;20187;-63
2022/11/05 01:43:22;;;;;;;28.73;18.17;;;11.10;20.10;;;;;;5089601;28;20239;-64
2022/11/05 01:45:57;;;;;;;26.13;16.70;;;11.00;24.70;;;;;;5088450;28;20198;-63
2022/11/05 01:48:32;;;;;;;26.20;17.60;;;10.90;31.20;;;;;;5088387;28;20468;-63
2022/11/05 01:51:05;;;;;;;30.03;19.20;;;10.70;43.40;;;;;;5088972;28;20453;-63
2022/11/05 01:53:55;;;;;;;26.37;17.03;;;10.80;51.20;;;;;;5090410;28;20566;-63
2022/11/05 01:56:31;;;;;;;24.43;16.50;;;10.80;60.70;;;;;;5087248;28;20922;-63
2022/11/05 01:59:06;;;;;;;28.27;16.47;;;10.90;63.20;;;;;;5086691;28;20459;-62
2022/11/05 02:01:32;;;;;;;24.00;15.40;;;10.90;59.80;;;;;;5089393;28;20624;-63
2022/11/05 02:04:02;;;;;;;19.83;13.70;;;10.90;58.30;;;;;;5089080;28;20505;-63
2022/11/05 02:06:30;;;;;;;17.20;11.73;;;10.80;48.00;;;;;;5090119;28;20672;-63
2022/11/05 02:09:03;;;;;;;19.13;12.70;;;10.80;43.20;;;;;;5088462;28;20860;-62
2022/11/05 02:11:29;;;;;;;17.23;12.63;;;10.80;46.40;;;;;;5087459;28;20467;-64
2022/11/05 02:13:55;;;;;;;16.10;12.20;;;;;;;;;;5088406;28;20475;-63
2022/11/05 02:16:57;;;;;;;20.40;13.20;;;10.80;60.60;;;;;;5088822;28;20475;-63
2022/11/05 02:19:54;;;;;;;17.90;11.60;;;10.70;58.10;;;;;;5085660;28;20435;-63
2022/11/05 02:22:44;;;;;;;18.53;13.57;;;10.70;66.30;;;;;;5087929;28;20928;-64
2022/11/05 02:25:47;;;;;;;17.27;12.77;;;10.70;63.80;;;;;;5090615;28;20929;-63
2022/11/05 02:28:25;;;;;;;20.53;14.03;;;12.20;77.00;;;;;;5086848;28;20495;-64
2022/11/05 02:31:07;;;;;;;21.87;15.47;;;10.70;67.80;;;;;;5088233;28;20761;-63
2022/11/05 02:33:55;;;;;;;20.87;13.03;;;10.70;66.50;;;;;;5086778;28;20447;-63
2022/11/05 02:36:44;;;;;;;23.27;15.27;;;10.70;65.80;;;;;;5084619;28;20574;-63
2022/11/05 02:39:24;;;;;;;20.00;14.10;;;10.80;64.60;;;;;;5083786;28;20452;-63
2022/11/05 02:42:14;;;;;;;20.57;13.23;;;10.70;67.80;;;;;;5087946;28;20450;-63
2022/11/05 02:45:18;;;;;;;23.60;15.10;;;10.70;73.40;;;;;;5086290;28;20977;-63
2022/11/05 02:48:03;;;;;;;20.50;14.17;;;10.70;79.70;;;;;;5063567;28;20796;-63
2022/11/05 02:50:47;;;;;;;21.40;15.27;;;10.70;91.40;;;;;;5088697;28;20486;-62
2022/11/05 02:53:47;;;;;;;24.80;15.87;;;10.80;96.30;;;;;;5088244;28;20439;-63
2022/11/05 02:56:25;;;;;;;26.50;15.13;;;10.70;93.20;;;;;;5085654;28;20452;-63
2022/11/05 02:58:50;;;;;;;22.77;14.80;;;10.80;93.30;;;;;;5088285;28;20446;-63
2022/11/05 03:01:16;;;;;;;22.63;14.57;;;10.80;94.30;;;;;;5087705;28;20477;-64
2022/11/05 03:03:50;;;;;;;23.70;14.87;;;10.80;96.60;;;;;;5089469;28;20189;-63
2022/11/05 03:06:43;;;;;;;19.90;15.10;;;10.80;96.80;;;;;;5089132;28;20272;-63
2022/11/05 03:09:44;;;;;;;19.87;14.90;;;10.90;99.90;;;;;;5086248;28;20452;-63
2022/11/05 03:12:25;;;;;;;22.40;14.03;;;11.00;99.40;;;;;;5046374;28;20998;-63
2022/11/05 03:15:10;;;;;;;19.57;12.83;;;10.90;94.20;;;;;;5081273;28;20450;-63
2022/11/05 03:17:41;;;;;;;22.87;14.47;;;10.90;92.80;;;;;;5085149;28;20514;-63
2022/11/05 03:20:22;;;;;;;22.33;13.80;;;10.90;93.40;;;;;;5087614;28;20479;-63
2022/11/05 03:23:02;;;;;;;23.00;13.93;;;10.80;94.20;;;;;;5086852;28;20471;-63
2022/11/05 03:25:30;;;;;;;19.40;13.27;;;10.90;91.80;;;;;;5088831;28;20449;-63
2022/11/05 03:28:02;;;;;;;20.40;14.03;;;10.80;93.80;;;;;;5088297;28;20960;-62
2022/11/05 03:30:30;;;;;;;18.30;12.80;;;10.80;94.80;;;;;;5086753;28;20421;-63
2022/11/05 03:33:04;;;;;;;20.40;14.53;;;10.90;99.20;;;;;;5088533;28;20446;-63
2022/11/05 03:35:36;;;;;;;20.77;13.00;;;10.90;98.10;;;;;;5088867;28;20453;-63
2022/11/05 03:38:09;;;;;;;25.00;15.17;;;10.90;96.30;;;;;;5090505;28;20467;-62
2022/11/05 03:40:36;;;;;;;21.33;13.57;;;11.00;93.00;;;;;;5092117;28;20478;-63
2022/11/05 03:43:07;;;;;;;20.60;13.67;;;11.00;93.20;;;;;;5091267;28;20455;-63
2022/11/05 03:45:40;;;;;;;19.00;13.27;;;;;;;;;;5092537;28;20475;-63
2022/11/05 03:48:09;;;;;;;19.07;13.80;;;11.00;91.20;;;;;;5091559;28;20503;-63
2022/11/05 03:50:39;;;;;;;18.60;13.50;;;11.00;89.50;;;;;;5092141;28;20449;-62
2022/11/05 03:53:12;;;;;;;19.60;14.83;;;11.20;71.20;;;;;;5089064;28;20438;-62
2022/11/05 03:55:47;;;;;;;21.03;15.80;;;9.60;47.20;;;;;;5092918;28;20463;-63
2022/11/05 03:58:14;;;;;;;21.03;14.33;;;11.10;44.50;;;;;;5087911;28;20445;-62
2022/11/05 04:00:40;;;;;;;22.00;15.57;;;11.00;47.00;;;;;;5090124;28;20452;-62
2022/11/05 04:03:05;;;;;;;22.87;14.50;;;11.00;54.20;;;;;;5092537;28;20761;-62
2022/11/05 04:05:31;;;;;;;25.90;17.20;;;11.10;54.90;;;;;;5091545;28;20459;-64
2022/11/05 04:13:27;;;;;;;28.20;16.80;;;11.10;41.30;;;;;;5088862;28;20445;-63
2022/11/05 04:18:40;;;;;;;24.20;16.37;;;11.20;29.30;;;;;;5088814;28;20420;-63
2022/11/05 04:24:08;;;;;;;23.77;15.73;;;11.20;22.40;;;;;;5091881;28;20425;-64
2022/11/05 04:26:39;;;;;;;28.73;17.53;;;11.10;20.50;;;;;;5089785;28;20450;-63
2022/11/05 04:31:50;;;;;;;26.53;17.77;;;11.10;17.30;;;;;;5092900;28;21003;-64
2022/11/05 04:34:17;;;;;;;28.03;17.63;;;11.10;18.50;;;;;;5089806;28;20447;-63
2022/11/05 04:36:44;;;;;;;26.27;16.57;;;11.00;20.60;;;;;;5089871;28;20281;-63
2022/11/05 04:39:10;;;;;;;26.10;16.83;;;11.10;20.40;;;;;;5085794;28;20425;-64
2022/11/05 04:41:35;;;;;;;26.80;17.83;;;11.00;24.20;;;;;;5090561;28;20882;-63
2022/11/05 04:44:01;;;;;;;24.97;18.10;;;11.20;20.10;;;;;;5089613;28;20189;-62
2022/11/05 04:46:27;;;;;;;25.80;16.80;;;11.10;3.00;;;;;;5090042;28;20216;-62
2022/11/05 04:48:52;;;;;;;27.03;17.70;;;11.00;8.20;;;;;;5091112;28;20428;-63
2022/11/05 04:51:18;;;;;;;23.67;16.83;;;11.00;9.60;;;;;;5090294;28;20209;-64
2022/11/05 04:53:43;;;;;;;25.57;17.20;;;11.10;11.00;;;;;;5092069;28;20218;-63
2022/11/05 04:56:17;;;;;;;23.73;16.70;;;11.10;7.40;;;;;;5090357;28;20547;-63
2022/11/05 04:58:43;;;;;;;26.40;16.33;;;11.10;5.90;;;;;;5089208;28;21820;-63
2022/11/05 05:01:14;;;;;;;25.77;16.70;;;11.00;12.00;;;;;;5090874;28;20954;-63
2022/11/05 05:03:40;;;;;;;27.30;17.13;;;;;;;;;;5089991;28;20505;-64
2022/11/05 05:06:06;;;;;;;25.87;17.10;;;11.10;10.80;;;;;;5089503;28;20452;-63
2022/11/05 05:08:32;;;;;;;27.70;18.00;;;11.10;5.70;;;;;;5084802;28;20452;-63
2022/11/05 05:11:08;;;;;;;25.07;16.13;;;11.10;2.60;;;;;;5089916;28;20465;-63
2022/11/05 05:13:34;;;;;;;25.73;16.60;;;11.10;3.70;;;;;;5090464;28;20247;-64
2022/11/05 05:16:15;;;;;;;28.20;17.73;;;11.20;3.30;;;;;;5090709;28;20451;-63
2022/11/05 05:18:40;;;;;;;33.13;16.40;;;11.20;1.00;;;;;;5088688;28;20423;-63
2022/11/05 05:23:52;;;;;;;24.00;15.70;;;11.10;1.10;;;;;;5088167;28;20230;-62
2022/11/05 05:26:17;;;;;;;25.87;16.07;;;;;;;;;;5089603;28;20538;-63
2022/11/05 05:28:43;;;;;;;24.97;17.57;;;10.90;7.70;;;;;;5088168;28;20188;-63
2022/11/05 05:31:09;;;;;;;28.20;15.83;;;10.90;7.60;;;;;;5090040;28;20772;-63
2022/11/05 05:33:35;;;;;;;30.97;18.03;;;;;;;;;;5090185;28;20198;-63
2022/11/05 05:36:01;;;;;;;29.53;19.17;;;11.20;8.30;;;;;;5088578;28;20186;-63
2022/11/05 05:38:28;;;;;;;29.97;17.83;;;11.10;2.20;;;;;;5089271;28;20447;-63
2022/11/05 05:40:59;;;;;;;26.30;16.83;;;11.10;2.20;;;;;;5088705;28;20924;-63
2022/11/05 05:43:31;;;;;;;25.00;16.87;;;11.10;2.30;;;;;;5090211;28;20437;-63
2022/11/05 05:46:04;;;;;;;28.13;16.90;;;11.10;1.40;;;;;;5087106;28;20464;-63
2022/11/05 05:48:30;;;;;;;33.60;16.77;;;11.00;1.00;;;;;;5089783;28;21159;-63
2022/11/05 05:51:00;;;;;;;30.87;17.10;;;11.00;5.60;;;;;;5088504;28;20472;-63
2022/11/05 05:53:26;;;;;;;23.80;15.57;;;11.00;1.00;;;;;;5087304;28;20213;-63
2022/11/05 05:55:53;;;;;;;24.43;15.43;;;11.10;1.20;;;;;;5089835;28;20452;-62
2022/11/05 05:58:19;;;;;;;26.63;16.53;;;11.00;1.10;;;;;;5086910;28;20282;-63
2022/11/05 06:00:44;;;;;;;23.00;16.97;;;11.00;1.00;;;;;;5087946;28;20498;-63
2022/11/05 06:03:10;;;;;;;24.47;16.13;;;11.00;1.00;;;;;;5089820;28;20197;-63
2022/11/05 06:05:35;;;;;;;25.73;16.63;;;11.10;1.00;;;;;;5088057;28;20261;-64
2022/11/05 06:08:01;;;;;;;25.87;15.80;;;11.10;1.00;;;;;;5088593;28;20197;-63
2022/11/05 06:10:26;;;;;;;24.90;16.13;;;11.00;1.00;;;;;;5088678;28;20224;-64
2022/11/05 06:12:52;;;;;;;23.73;16.07;;;11.00;1.00;;;;;;5087427;28;20221;-62
2022/11/05 06:15:17;;;;;;;30.63;16.20;;;10.90;1.00;;;;;;5090205;28;20181;-63
2022/11/05 06:17:43;;;;;;;22.60;15.10;;;10.90;2.40;;;;;;5087890;28;20178;-64
2022/11/05 06:20:10;;;;;;;29.43;16.43;;;10.90;2.00;;;;;;5086899;28;20272;-64
2022/11/05 06:22:35;;;;;;;28.03;17.10;;;10.90;2.20;;;;;;5088414;28;20840;-63
2022/11/05 06:25:01;;;;;;;30.23;17.73;;;11.00;1.00;;;;;;5089445;28;20458;-63
2022/11/05 06:27:28;;;;;;;25.43;16.73;;;10.90;1.00;;;;;;5088587;28;20197;-65
2022/11/05 06:29:53;;;;;;;29.00;16.67;;;11.00;1.00;;;;;;5086902;28;20642;-63
2022/11/05 06:32:19;;;;;;;29.37;17.33;;;10.90;2.10;;;;;;5086011;28;20474;-65
2022/11/05 06:34:44;;;;;;;26.43;14.67;;;10.90;1.60;;;;;;5087777;28;20178;-63
2022/11/05 06:37:10;;;;;;;27.90;15.13;;;11.00;2.00;;;;;;5089286;28;20186;-63
2022/11/05 06:39:35;;;;;;;27.30;16.23;;;11.00;1.00;;;;;;5087883;28;20208;-63
2022/11/05 06:42:01;;;;;;;25.57;16.90;;;10.90;1.00;;;;;;5086782;28;20263;-64
2022/11/05 06:44:27;;;;;;;23.17;15.63;;;11.00;1.00;;;;;;5087316;28;20274;-63
2022/11/05 06:46:52;;;;;;;25.73;16.00;;;11.10;1.00;;;;;;5089718;28;20190;-64
2022/11/05 06:49:18;;;;;;;20.63;13.97;;;11.40;1.00;;;;;;5088524;28;20196;-63
2022/11/05 06:51:44;;;;;;;24.87;15.23;;;11.30;1.00;;;;;;5086967;28;20209;-63
2022/11/05 06:54:09;;;;;;;26.37;17.10;;;11.20;1.00;;;;;;5089530;28;20241;-63
2022/11/05 06:56:35;;;;;;;24.13;14.80;;;11.20;1.00;;;;;;5084198;28;20448;-64
2022/11/05 06:59:00;;;;;;;26.63;15.33;;;11.10;1.00;;;;;;5089603;28;20189;-63
2022/11/05 07:01:26;;;;;;;28.17;18.20;;;;;;;;;;5088187;28;20190;-64
2022/11/05 07:03:52;;;;;;;20.30;14.30;;;11.40;1.00;;;;;;5089517;28;20189;-62
2022/11/05 07:06:17;;;;;;;22.60;14.17;;;11.40;1.00;;;;;;5088820;28;20569;-64
2022/11/05 07:08:43;;;;;;;23.50;14.63;;;11.40;1.00;;;;;;5086727;28;20610;-63
2022/11/05 07:11:09;;;;;;;25.20;14.83;;;11.40;1.00;;;;;;5088639;28;20235;-63
2022/11/05 07:13:34;;;;;;;20.70;14.27;;;11.60;1.00;;;;;;5088276;28;20183;-63
2022/11/05 07:16:00;;;;;;;25.37;14.97;;;11.60;1.00;;;;;;5086972;28;20262;-63
2022/11/05 07:18:25;;;;;;;25.13;15.20;;;11.50;1.00;;;;;;5086211;28;20201;-63
2022/11/05 07:20:51;;;;;;;20.90;14.23;;;11.60;1.00;;;;;;5088086;28;20202;-63
2022/11/05 07:23:17;;;;;;;19.83;14.20;;;11.50;1.00;;;;;;5088387;28;20197;-64
2022/11/05 07:25:42;;;;;;;22.47;13.23;;;11.50;1.00;;;;;;5087286;28;20548;-63
2022/11/05 07:28:09;;;;;;;23.50;13.87;;;11.50;1.00;;;;;;5086773;28;20281;-63
2022/11/05 07:30:35;;;;;;;21.13;14.00;;;11.50;1.00;;;;;;5087196;28;20201;-63
2022/11/05 07:33:01;;;;;;;16.70;11.77;;;11.60;1.00;;;;;;5086797;28;20469;-63
2022/11/05 07:35:27;;;;;;;17.37;11.57;;;11.70;1.00;;;;;;5081497;28;20448;-64
2022/11/05 07:37:53;;;;;;;20.60;12.30;;;11.90;1.00;;;;;;5086180;28;20455;-62
2022/11/05 07:40:21;;;;;;;19.73;12.93;;;11.70;1.00;;;;;;5083527;28;20208;-64
2022/11/05 07:43:04;;;;;;;18.70;13.07;;;11.70;1.00;;;;;;5084548;28;20463;-64
2022/11/05 07:45:30;;;;;;;20.40;14.93;;;11.70;1.00;;;;;;5083891;28;20449;-64
2022/11/05 07:48:02;;;;;;;23.73;13.20;;;11.70;1.00;;;;;;5087111;28;20423;-63
2022/11/05 07:50:30;;;;;;;20.53;12.40;;;11.60;1.00;;;;;;5086585;28;20467;-64
2022/11/05 07:53:05;;;;;;;17.40;12.37;;;11.70;1.00;;;;;;5082931;28;22095;-65
2022/11/05 07:55:31;;;;;;;19.17;12.93;;;11.70;1.00;;;;;;5085707;28;20415;-64
2022/11/05 07:57:57;;;;;;;18.20;11.87;;;;;;;;;;5083565;28;20447;-64
2022/11/05 08:00:24;;;;;;;20.40;13.10;;;12.00;1.00;;;;;;5087354;28;20514;-65
2022/11/05 08:03:02;;;;;;;21.70;14.20;;;12.00;1.00;;;;;;5085509;28;20867;-64
2022/11/05 08:05:29;;;;;;;16.63;12.60;;;12.00;1.00;;;;;;5084623;28;20666;-63
2022/11/05 08:07:56;;;;;;;16.57;12.93;;;12.00;1.00;;;;;;5085714;28;20426;-64
2022/11/05 08:10:23;;;;;;;20.83;12.53;;;12.00;1.00;;;;;;5085430;28;20889;-64
2022/11/05 08:12:49;;;;;;;20.53;12.80;;;12.10;1.00;;;;;;5084837;28;20595;-64
2022/11/05 08:15:15;;;;;;;17.83;13.77;;;;;;;;;;5084484;28;20535;-67
2022/11/05 08:17:40;;;;;;;20.90;13.33;;;12.00;1.00;;;;;;5085642;28;20454;-65
2022/11/05 08:20:07;;;;;;;22.40;13.17;;;12.20;1.00;;;;;;5084889;28;20418;-64
2022/11/05 08:22:32;;;;;;;19.03;13.00;;;12.30;1.00;;;;;;5087852;28;20190;-64
2022/11/05 08:24:58;;;;;;;17.90;11.43;;;12.20;1.00;;;;;;5090582;28;20492;-63
2022/11/05 08:27:23;;;;;;;18.03;12.00;;;12.20;1.00;;;;;;5091097;28;20721;-64
2022/11/05 08:29:49;;;;;;;21.00;11.33;;;;;;;;;;5088359;28;20183;-65
2022/11/05 08:32:15;;;;;;;20.80;11.90;;;12.30;1.00;;;;;;5086543;28;20224;-64
2022/11/05 08:34:41;;;;;;;17.93;11.67;;;12.20;1.00;;;;;;5086290;28;20415;-64
2022/11/05 08:37:06;;;;;;;16.97;10.37;;;12.20;1.00;;;;;;5088183;28;20434;-64
2022/11/05 08:39:32;;;;;;;17.43;11.20;;;12.40;1.00;;;;;;5088607;28;20578;-64
2022/11/05 08:41:58;;;;;;;16.00;11.00;;;12.40;1.00;;;;;;5089706;28;20185;-65
2022/11/05 08:44:23;;;;;;;16.80;11.57;;;12.20;1.00;;;;;;5090585;28;20185;-65
2022/11/05 08:46:49;;;;;;;18.13;10.37;;;;;;;;;;5090943;28;20188;-63
2022/11/05 08:49:15;;;;;;;15.07;9.00;;;12.50;1.00;;;;;;5090633;28;20197;-64
2022/11/05 08:51:43;;;;;;;13.53;9.83;;;12.50;1.00;;;;;;5089424;28;20437;-64
2022/11/05 08:54:08;;;;;;;20.60;11.57;;;12.60;1.00;;;;;;5088905;28;20221;-64
2022/11/05 08:56:34;;;;;;;17.47;10.80;;;12.60;1.00;;;;;;5091071;28;20429;-64
2022/11/05 08:59:00;;;;;;;21.00;11.53;;;12.50;1.00;;;;;;5088931;28;20270;-64
2022/11/05 09:01:26;;;;;;;21.80;12.00;;;;;;;;;;5089569;28;20190;-63
2022/11/05 09:03:52;;;;;;;18.20;10.47;;;12.50;1.00;;;;;;5090515;28;20259;-62
2022/11/05 09:06:21;;;;;;;20.50;10.47;;;12.60;1.00;;;;;;5089026;28;20448;-64
2022/11/05 09:08:47;;;;;;;15.03;10.20;;;12.80;1.00;;;;;;5089995;28;20472;-63
2022/11/05 09:11:12;;;;;;;18.23;10.60;;;12.80;1.00;;;;;;5090974;28;20417;-64
2022/11/05 09:13:38;;;;;;;18.77;10.13;;;12.80;1.00;;;;;;5091743;28;20194;-64
2022/11/05 09:16:04;;;;;;;20.33;9.73;;;12.90;1.00;;;;;;5086077;28;20202;-64
2022/11/05 09:18:29;;;;;;;15.83;10.13;;;12.90;1.00;;;;;;5091019;28;20215;-64
2022/11/05 09:20:55;;;;;;;12.37;9.53;;;12.70;1.00;;;;;;5089335;28;20475;-64
2022/11/05 09:23:20;;;;;;;18.50;10.73;;;12.70;1.00;;;;;;5089361;28;20268;-65
2022/11/05 09:25:46;;;;;;;21.97;11.03;;;12.90;1.00;;;;;;5084538;28;20209;-64
2022/11/05 09:28:20;;;;;;;12.87;10.00;;;12.70;1.00;;;;;;5085141;28;20251;-62
2022/11/05 09:30:49;;;;;;;13.77;9.17;;;12.70;1.00;;;;;;5085324;28;20205;-63
2022/11/05 09:33:19;;;;;;;15.07;10.13;;;12.60;1.00;;;;;;5089108;28;20941;-63
2022/11/05 09:35:45;;;;;;;18.33;10.90;;;12.50;1.00;;;;;;5085905;28;20500;-63
2022/11/05 09:38:11;;;;;;;14.73;10.93;;;12.40;1.00;;;;;;5089624;28;20546;-63
2022/11/05 09:41:00;;;;;;;16.20;10.50;;;12.40;1.00;;;;;;5087863;28;20434;-64
2022/11/05 09:44:03;;;;;;;11.67;9.17;;;12.50;1.00;;;;;;5088428;28;20890;-63
2022/11/05 09:46:42;;;;;;;18.83;8.90;;;12.70;1.00;;;;;;5043594;28;20453;-62
2022/11/05 09:49:17;;;;;;;13.73;8.90;;;13.00;1.00;;;;;;5090926;28;20410;-63
2022/11/05 09:51:43;;;;;;;12.63;9.70;;;13.10;1.00;;;;;;5086648;28;20449;-64
2022/11/05 09:54:11;;;;;;;11.20;8.80;;;15.20;1.00;;;;;;5088389;28;20559;-65
2022/11/05 09:56:39;;;;;;;12.90;9.10;;;13.20;1.00;;;;;;5090743;28;20190;-64
2022/11/05 09:59:21;;;;;;;18.27;8.07;;;13.40;1.00;;;;;;5086984;28;20486;-64
2022/11/05 10:01:47;;;;;;;14.20;8.63;;;13.40;1.00;;;;;;5087794;28;20550;-64
2022/11/05 10:04:19;;;;;;;10.27;7.90;;;13.70;1.00;;;;;;5090437;28;20403;-64
2022/11/05 10:06:50;;;;;;;14.73;9.73;;;13.60;1.00;;;;;;5091185;28;20926;-63
2022/11/05 10:09:36;;;;;;;11.27;7.60;;;13.70;1.00;;;;;;5090838;28;21165;-63
2022/11/05 10:12:30;;;;;;;10.00;6.80;;;13.80;1.00;;;;;;5089105;28;20475;-63
2022/11/05 10:15:13;;;;;;;16.90;7.17;;;13.70;1.00;;;;;;5090758;28;20470;-63
2022/11/05 10:17:45;;;;;;;9.17;6.63;;;13.40;1.00;;;;;;5089964;28;21710;-63
2022/11/05 10:20:29;;;;;;;12.77;7.33;;;13.40;1.00;;;;;;5090779;28;20419;-64
2022/11/05 10:22:58;;;;;;;13.00;6.70;;;13.40;1.00;;;;;;5090511;28;20447;-63
2022/11/05 10:25:29;;;;;;;14.23;7.73;;;13.30;1.00;;;;;;5090657;28;20490;-63
2022/11/05 10:27:55;;;;;;;10.27;6.53;;;13.20;1.00;;;;;;5089822;28;21006;-63
2022/11/05 10:30:21;;;;;;;8.77;6.10;;;13.00;1.00;;;;;;5090306;28;20451;-63
2022/11/05 10:32:50;;;;;;;10.80;7.13;;;13.00;1.00;;;;;;5089611;28;20479;-64
2022/11/05 10:35:21;;;;;;;14.83;7.17;;;12.90;1.00;;;;;;5090080;28;20824;-63
2022/11/05 10:37:49;;;;;;;13.53;6.50;;;12.80;1.00;;;;;;5090086;28;20757;-62
2022/11/05 10:40:33;;;;;;;10.47;5.87;;;12.90;1.00;;;;;;5090417;28;20408;-63
2022/11/05 10:43:22;;;;;;;10.40;6.83;;;12.80;1.00;;;;;;5088344;28;20437;-63
2022/11/05 10:46:03;;;;;;;13.47;7.57;;;13.20;1.00;;;;;;5089739;28;20551;-63
2022/11/05 10:49:17;;;;;;;15.47;7.23;;;13.40;1.00;;;;;;5090357;28;20772;-63
2022/11/05 10:51:43;;;;;;;17.60;5.83;;;13.80;1.00;;;;;;5074575;28;20458;-63
2022/11/05 10:54:16;;;;;;;10.00;5.43;;;13.70;1.00;;;;;;5088396;28;20649;-63
2022/11/05 10:56:44;;;;;;;10.43;5.73;;;13.70;1.00;;;;;;5090154;28;20489;-63
2022/11/05 10:59:23;;;;;;;7.27;5.10;;;13.80;1.00;;;;;;5089320;28;20458;-64
2022/11/05 11:02:21;;;;;;;19.53;9.40;;;13.70;1.00;;;;;;5089685;28;20437;-63
2022/11/05 11:04:57;;;;;;;11.93;6.40;;;13.80;1.00;;;;;;5089956;28;20759;-63
2022/11/05 11:07:24;;;;;;;10.43;5.23;;;13.90;1.00;;;;;;5089740;28;20434;-64
2022/11/05 11:09:50;;;;;;;10.70;5.50;;;13.90;1.00;;;;;;5089680;28;20933;-63
2022/11/05 11:12:22;;;;;;;7.57;4.53;;;13.80;1.00;;;;;;5089455;28;20452;-63
2022/11/05 11:15:26;;;;;;;9.37;4.40;;;13.80;1.00;;;;;;5089950;28;20978;-63
2022/11/05 11:17:52;;;;;;;8.40;4.10;;;13.50;1.00;;;;;;5089968;28;20409;-63
2022/11/05 11:20:21;;;;;;;11.10;4.10;;;13.60;1.00;;;;;;5089665;28;20434;-63
2022/11/05 11:23:00;;;;;;;8.13;4.70;;;13.80;1.00;;;;;;5089730;28;20456;-64
2022/11/05 11:25:29;;;;;;;8.20;4.03;;;14.10;1.00;;;;;;5089656;28;20442;-63
2022/11/05 11:28:00;;;;;;;10.13;3.60;;;14.40;1.00;;;;;;5089508;28;20571;-64
2022/11/05 11:30:26;;;;;;;10.07;3.40;;;14.50;1.00;;;;;;5089269;28;20504;-64
2022/11/05 11:33:06;;;;;;;7.57;3.80;;;14.70;1.00;;;;;;5089553;28;20618;-64
2022/11/05 11:35:36;;;;;;;9.60;3.80;;;14.50;1.00;;;;;;5089566;28;20179;-64
2022/11/05 11:38:02;;;;;;;8.53;3.50;;;;;;;;;;5089521;28;20409;-64
2022/11/05 11:40:32;;;;;;;7.40;2.60;;;14.80;1.00;;;;;;5089287;28;20471;-64
2022/11/05 11:43:02;;;;;;;8.17;3.27;;;14.80;1.00;;;;;;5089634;28;20437;-63
2022/11/05 11:45:48;;;;;;;6.10;3.23;;;14.80;1.00;;;;;;5088991;28;20459;-63
2022/11/05 11:48:46;;;;;;;7.43;3.40;;;15.20;1.00;;;;;;5088955;28;20948;-63
2022/11/05 11:51:43;;;;;;;3.77;2.77;;;15.20;1.00;;;;;;5081030;28;20515;-63
2022/11/05 11:54:23;;;;;;;15.67;3.47;;;14.90;1.00;;;;;;5090468;28;20491;-63
2022/11/05 11:56:49;;;;;;;6.60;2.70;;;14.40;1.00;;;;;;5093646;28;20554;-63
2022/11/05 11:59:22;;;;;;;10.00;2.77;;;13.90;1.00;;;;;;5092689;28;20727;-63
2022/11/05 12:02:03;;;;;;;9.33;3.30;;;13.70;1.00;;;;;;5092992;28;20182;-63
2022/11/05 12:04:37;;;;;;;4.80;2.80;;;14.00;1.00;;;;;;5093254;28;20433;-63
2022/11/05 12:07:36;;;;;;;12.10;3.60;;;14.30;1.00;;;;;;5093056;28;20425;-63
2022/11/05 12:10:17;;;;;;;5.13;3.20;;;14.80;1.00;;;;;;5093043;28;20429;-63
2022/11/05 12:13:10;;;;;;;8.30;3.53;;;15.20;1.00;;;;;;5092640;28;20445;-63
2022/11/05 12:15:55;;;;;;;10.27;3.30;;;15.50;1.00;;;;;;5091643;28;20974;-64
2022/11/05 12:18:39;;;;;;;6.27;2.67;;;15.70;1.00;;;;;;5092866;28;20487;-63
2022/11/05 12:21:25;;;;;;;7.03;2.30;;;15.80;1.00;;;;;;5092439;28;20880;-63
2022/11/05 12:24:06;;;;;;;10.67;3.20;;;15.90;1.00;;;;;;5091903;28;20450;-64
2022/11/05 12:27:09;;;;;;;5.53;2.03;;;15.60;1.00;;;;;;5092779;28;20435;-63
2022/11/05 12:29:52;;;;;;;5.53;2.53;;;14.90;1.00;;;;;;5092746;28;20439;-63
2022/11/05 12:32:20;;;;;;;9.37;2.47;;;14.90;1.00;;;;;;5093063;28;20494;-63
2022/11/05 12:35:10;;;;;;;7.53;2.23;;;14.50;1.00;;;;;;5092039;28;20450;-63
2022/11/05 12:38:01;;;;;;;6.17;3.10;;;14.40;1.00;;;;;;5092476;28;20445;-63
2022/11/05 12:40:46;;;;;;;5.47;2.00;;;14.30;1.00;;;;;;5092654;28;20433;-63
2022/11/05 12:43:26;;;;;;;8.37;2.67;;;13.90;1.00;;;;;;5092774;28;20477;-63
2022/11/05 12:46:29;;;;;;;6.87;2.00;;;13.80;1.00;;;;;;5092674;28;20464;-63
2022/11/05 12:49:29;;;;;;;12.63;3.50;;;13.80;1.00;;;;;;5092357;28;20439;-63
2022/11/05 12:52:06;;;;;;;5.50;2.40;;;13.80;1.00;;;;;;5091955;28;20893;-63
2022/11/05 12:55:00;;;;;;;13.80;2.43;;;13.80;1.00;;;;;;5092147;28;20956;-63
2022/11/05 12:57:29;;;;;;;6.00;2.30;;;13.90;1.00;;;;;;5091157;28;20412;-64
2022/11/05 13:00:02;;;;;;;12.00;2.60;;;13.90;1.00;;;;;;5091902;28;20500;-64
2022/11/05 13:02:51;;;;;;;8.03;2.80;;;14.00;1.00;;;;;;5092407;28;20968;-63
2022/11/05 13:05:36;;;;;;;9.60;2.83;;;13.90;1.00;;;;;;5092001;28;20412;-64
2022/11/05 13:08:09;;;;;;;9.47;3.30;;;13.90;1.00;;;;;;5091703;28;20464;-64
2022/11/05 13:10:50;;;;;;;9.93;2.90;;;14.00;1.00;;;;;;5091859;28;20425;-63
2022/11/05 13:13:49;;;;;;;6.33;3.30;;;14.00;1.00;;;;;;5091767;28;20480;-62
2022/11/05 13:16:31;;;;;;;9.63;2.10;;;14.00;1.00;;;;;;5091758;28;20429;-64
2022/11/05 13:19:18;;;;;;;10.50;3.23;;;14.00;1.00;;;;;;5091622;28;20422;-63
2022/11/05 13:22:08;;;;;;;14.00;2.80;;;13.90;1.00;;;;;;5091699;28;20537;-64
2022/11/05 13:24:47;;;;;;;8.33;2.50;;;17.20;1.00;;;;;;5091771;28;20462;-63
2022/11/05 13:27:34;;;;;;;5.40;2.13;;;14.40;1.00;;;;;;5091608;28;20414;-64
2022/11/05 13:30:05;;;;;;;7.80;2.50;;;14.40;1.00;;;;;;5090453;28;20456;-64
2022/11/05 13:32:38;;;;;;;9.07;3.00;;;14.50;1.00;;;;;;5091510;28;20461;-64
2022/11/05 13:35:06;;;;;;;7.53;2.27;;;14.60;1.00;;;;;;5091011;28;20414;-63
2022/11/05 13:40:40;;;;;;;6.63;2.43;;;14.90;1.00;;;;;;5091577;28;20485;-63
2022/11/05 13:43:34;;;;;;;10.70;2.80;;;15.00;1.00;;;;;;5091368;28;20953;-64
2022/11/05 13:46:13;;;;;;;6.47;2.20;;;15.10;1.00;;;;;;5074516;28;20448;-63
2022/11/05 13:48:56;;;;;;;6.17;1.80;;;14.80;1.00;;;;;;5090812;28;20428;-64
2022/11/05 13:51:41;;;;;;;3.87;1.87;;;14.70;1.00;;;;;;5090890;28;20439;-63
2022/11/05 13:54:07;;;;;;;5.70;1.97;;;;;;;;;;5090737;28;20875;-63